sensor_id;sensor_type;location;lat;lon;timestamp;P1;durP1;ratioP1;P2;durP2;ratioP2
15151;SDS011;7676;50.900;6.234;2023-06-14T00:05:58;5.40;;;4.90;;
15151;SDS011;7676;50.900;6.234;2023-06-14T00:21:00;5.37;;;4.87;;
15151;SDS011;7676;50.900;6.234;2023-06-14T00:36:04;4.77;;;4.33;;
15151;SDS011;7676;50.900;6.234;2023-06-14T00:51:07;5.03;;;4.57;;
15151;SDS011;7676;50.900;6.234;2023-06-14T01:06:23;5.40;;;4.90;;
15151;SDS011;7676;50.900;6.234;2023-06-14T01:21:44;5.57;;;5.00;;
15151;SDS011;7676;50.900;6.234;2023-06-14T01:36:46;7.57;;;5.37;;
15151;SDS011;7676;50.900;6.234;2023-06-14T01:51:51;6.03;;;5.43;;
15151;SDS011;7676;50.900;6.234;2023-06-14T02:06:53;6.03;;;5.43;;
15151;SDS011;7676;50.900;6.234;2023-06-14T02:21:56;5.57;;;5.07;;
15151;SDS011;7676;50.900;6.234;2023-06-14T02:36:59;6.43;;;5.83;;
15151;SDS011;7676;50.900;6.234;2023-06-14T02:52:01;6.77;;;6.07;;
15151;SDS011;7676;50.900;6.234;2023-06-14T03:07:04;6.20;;;5.60;;
15151;SDS011;7676;50.900;6.234;2023-06-14T03:22:17;6.97;;;5.60;;
15151;SDS011;7676;50.900;6.234;2023-06-14T03:37:19;7.03;;;6.23;;
15151;SDS011;7676;50.900;6.234;2023-06-14T03:52:22;6.43;;;5.83;;
15151;SDS011;7676;50.900;6.234;2023-06-14T04:07:26;6.53;;;5.90;;
15151;SDS011;7676;50.900;6.234;2023-06-14T04:22:30;6.73;;;6.10;;
15151;SDS011;7676;50.900;6.234;2023-06-14T04:37:35;7.83;;;6.67;;
15151;SDS011;7676;50.900;6.234;2023-06-14T04:52:43;6.90;;;6.30;;
15151;SDS011;7676;50.900;6.234;2023-06-14T05:07:45;12.13;;;7.53;;
15151;SDS011;7676;50.900;6.234;2023-06-14T05:22:48;12.40;;;8.60;;
15151;SDS011;7676;50.900;6.234;2023-06-14T05:37:53;20.60;;;7.87;;
15151;SDS011;7676;50.900;6.234;2023-06-14T05:52:56;14.30;;;6.93;;
15151;SDS011;7676;50.900;6.234;2023-06-14T06:07:58;10.43;;;6.93;;
15151;SDS011;7676;50.900;6.234;2023-06-14T06:23:00;8.90;;;5.80;;
15151;SDS011;7676;50.900;6.234;2023-06-14T06:38:03;8.00;;;4.80;;
15151;SDS011;7676;50.900;6.234;2023-06-14T06:53:05;8.13;;;4.83;;
15151;SDS011;7676;50.900;6.234;2023-06-14T07:08:08;5.00;;;3.90;;
15151;SDS011;7676;50.900;6.234;2023-06-14T07:23:11;5.03;;;4.10;;
15151;SDS011;7676;50.900;6.234;2023-06-14T07:38:13;6.07;;;4.23;;
15151;SDS011;7676;50.900;6.234;2023-06-14T07:53:16;4.83;;;3.30;;
15151;SDS011;7676;50.900;6.234;2023-06-14T08:08:18;5.10;;;3.40;;
15151;SDS011;7676;50.900;6.234;2023-06-14T08:23:21;4.77;;;3.53;;
15151;SDS011;7676;50.900;6.234;2023-06-14T08:38:23;5.10;;;3.43;;
15151;SDS011;7676;50.900;6.234;2023-06-14T08:53:26;3.30;;;3.00;;
15151;SDS011;7676;50.900;6.234;2023-06-14T09:08:35;3.37;;;2.93;;
15151;SDS011;7676;50.900;6.234;2023-06-14T09:23:39;2.87;;;2.40;;
15151;SDS011;7676;50.900;6.234;2023-06-14T09:38:51;4.03;;;3.00;;
15151;SDS011;7676;50.900;6.234;2023-06-14T09:53:55;2.87;;;2.57;;
15151;SDS011;7676;50.900;6.234;2023-06-14T10:09:03;2.37;;;2.17;;
15151;SDS011;7676;50.900;6.234;2023-06-14T10:24:08;2.97;;;1.83;;
15151;SDS011;7676;50.900;6.234;2023-06-14T10:39:15;2.97;;;1.83;;
15151;SDS011;7676;50.900;6.234;2023-06-14T10:54:22;2.50;;;1.67;;
15151;SDS011;7676;50.900;6.234;2023-06-14T11:09:51;2.43;;;1.70;;
15151;SDS011;7676;50.900;6.234;2023-06-14T11:25:13;3.50;;;2.27;;
15151;SDS011;7676;50.900;6.234;2023-06-14T11:40:17;2.40;;;1.77;;
15151;SDS011;7676;50.900;6.234;2023-06-14T11:55:19;2.43;;;1.73;;
15151;SDS011;7676;50.900;6.234;2023-06-14T12:10:22;3.27;;;1.83;;
15151;SDS011;7676;50.900;6.234;2023-06-14T12:25:32;2.43;;;1.77;;
15151;SDS011;7676;50.900;6.234;2023-06-14T12:40:37;2.90;;;1.97;;
15151;SDS011;7676;50.900;6.234;2023-06-14T12:55:41;2.20;;;2.00;;
15151;SDS011;7676;50.900;6.234;2023-06-14T13:10:43;2.90;;;2.30;;
15151;SDS011;7676;50.900;6.234;2023-06-14T13:25:46;3.33;;;2.17;;
15151;SDS011;7676;50.900;6.234;2023-06-14T13:40:48;3.47;;;2.10;;
15151;SDS011;7676;50.900;6.234;2023-06-14T13:55:51;2.83;;;2.33;;
15151;SDS011;7676;50.900;6.234;2023-06-14T14:10:54;2.27;;;2.07;;
15151;SDS011;7676;50.900;6.234;2023-06-14T14:25:57;2.63;;;2.20;;
15151;SDS011;7676;50.900;6.234;2023-06-14T14:41:02;3.10;;;1.97;;
15151;SDS011;7676;50.900;6.234;2023-06-14T14:56:05;1.73;;;1.63;;
15151;SDS011;7676;50.900;6.234;2023-06-14T15:11:08;2.40;;;1.67;;
15151;SDS011;7676;50.900;6.234;2023-06-14T15:26:10;3.13;;;1.70;;
15151;SDS011;7676;50.900;6.234;2023-06-14T15:41:13;2.03;;;1.77;;
15151;SDS011;7676;50.900;6.234;2023-06-14T15:56:16;1.80;;;1.60;;
15151;SDS011;7676;50.900;6.234;2023-06-14T16:11:18;1.70;;;1.60;;
15151;SDS011;7676;50.900;6.234;2023-06-14T16:26:21;3.30;;;1.70;;
15151;SDS011;7676;50.900;6.234;2023-06-14T16:41:23;2.30;;;2.07;;
15151;SDS011;7676;50.900;6.234;2023-06-14T16:56:26;4.17;;;1.87;;
15151;SDS011;7676;50.900;6.234;2023-06-14T17:11:29;3.03;;;1.97;;
15151;SDS011;7676;50.900;6.234;2023-06-14T17:26:32;1.90;;;1.80;;
15151;SDS011;7676;50.900;6.234;2023-06-14T17:41:34;2.00;;;1.60;;
15151;SDS011;7676;50.900;6.234;2023-06-14T17:56:37;2.17;;;1.80;;
15151;SDS011;7676;50.900;6.234;2023-06-14T18:11:39;2.60;;;2.40;;
15151;SDS011;7676;50.900;6.234;2023-06-14T18:26:42;2.20;;;2.00;;
15151;SDS011;7676;50.900;6.234;2023-06-14T18:41:44;2.20;;;1.97;;
15151;SDS011;7676;50.900;6.234;2023-06-14T18:56:47;2.30;;;2.10;;
15151;SDS011;7676;50.900;6.234;2023-06-14T19:11:49;2.77;;;2.03;;
15151;SDS011;7676;50.900;6.234;2023-06-14T19:26:52;2.67;;;1.93;;
15151;SDS011;7676;50.900;6.234;2023-06-14T19:41:55;3.17;;;2.03;;
15151;SDS011;7676;50.900;6.234;2023-06-14T19:56:58;3.30;;;2.33;;
15151;SDS011;7676;50.900;6.234;2023-06-14T20:12:00;2.40;;;2.20;;
15151;SDS011;7676;50.900;6.234;2023-06-14T20:27:04;2.43;;;2.20;;
15151;SDS011;7676;50.900;6.234;2023-06-14T20:42:07;2.77;;;2.20;;
15151;SDS011;7676;50.900;6.234;2023-06-14T20:57:30;2.60;;;2.40;;
15151;SDS011;7676;50.900;6.234;2023-06-14T21:12:33;3.30;;;2.60;;
15151;SDS011;7676;50.900;6.234;2023-06-14T21:27:36;3.20;;;2.50;;
15151;SDS011;7676;50.900;6.234;2023-06-14T21:42:38;2.83;;;2.53;;
15151;SDS011;7676;50.900;6.234;2023-06-14T21:57:41;2.83;;;2.63;;
15151;SDS011;7676;50.900;6.234;2023-06-14T22:12:44;2.53;;;2.33;;
15151;SDS011;7676;50.900;6.234;2023-06-14T22:27:47;2.87;;;2.20;;
15151;SDS011;7676;50.900;6.234;2023-06-14T22:42:49;2.17;;;1.97;;
15151;SDS011;7676;50.900;6.234;2023-06-14T22:57:55;2.00;;;1.90;;
15151;SDS011;7676;50.900;6.234;2023-06-14T23:12:57;3.43;;;2.20;;
15151;SDS011;7676;50.900;6.234;2023-06-14T23:28:03;4.50;;;3.20;;
15151;SDS011;7676;50.900;6.234;2023-06-14T23:43:09;3.20;;;2.20;;
15151;SDS011;7676;50.900;6.234;2023-06-14T23:58:11;2.50;;;2.23;;
